Time;durP1;ratioP1;P1;durP2;ratioP2;P2;SDS_P1;SDS_P2;PMS_P1;PMS_P2;Temp;Humidity;BMP_temperature;BMP_pressure;BME280_temperature;BME280_humidity;BME280_pressure;Samples;Min_cycle;Max_cycle;Signal;HPM_P1;HPM_P2
2021/01/21 00:01:18;;;;;;;4.88;1.55;;;9.30;99.90;;;;;;5065359;28;20048;-87
2021/01/21 00:03:44;;;;;;;4.38;1.58;;;8.30;99.90;;;;;;5063150;28;20098;-87
2021/01/21 00:06:10;;;;;;;4.40;1.50;;;8.30;99.90;;;;;;5059223;28;20037;-88
2021/01/21 00:08:36;;;;;;;4.22;1.75;;;8.30;99.90;;;;;;5067505;28;20040;-90
2021/01/21 00:11:01;;;;;;;4.32;1.83;;;8.30;99.90;;;;;;5069430;28;20040;-90
2021/01/21 00:13:27;;;;;;;5.00;1.60;;;8.40;99.90;;;;;;5059562;28;20464;-89
2021/01/21 00:15:53;;;;;;;3.88;1.48;;;8.30;99.90;;;;;;5070301;28;20101;-88
2021/01/21 00:18:18;;;;;;;3.80;1.55;;;8.40;99.90;;;;;;5073150;28;20055;-88
2021/01/21 00:20:45;;;;;;;6.88;1.85;;;8.40;99.90;;;;;;5073362;28;20040;-88
2021/01/21 00:23:11;;;;;;;5.88;1.60;;;8.40;99.90;;;;;;5058450;28;20041;-88
2021/01/21 00:25:36;;;;;;;3.63;1.35;;;8.50;99.90;;;;;;5073541;28;20131;-89
2021/01/21 00:28:02;;;;;;;6.28;1.70;;;8.50;99.90;;;;;;5073025;28;20042;-88
2021/01/21 00:30:28;;;;;;;3.92;1.65;;;8.50;99.90;;;;;;5073693;28;20406;-89
2021/01/21 00:32:53;;;;;;;4.50;1.60;;;8.50;99.90;;;;;;5073583;28;20051;-88
2021/01/21 00:35:19;;;;;;;4.18;1.33;;;8.50;99.90;;;;;;5073347;28;20044;-87
2021/01/21 00:37:45;;;;;;;4.93;1.60;;;8.50;99.90;;;;;;5073415;28;20090;-88
2021/01/21 00:40:12;;;;;;;7.82;1.95;;;8.60;99.90;;;;;;5072746;28;20083;-88
2021/01/21 00:42:38;;;;;;;2.78;1.33;;;8.60;99.90;;;;;;5073807;28;20475;-89
2021/01/21 00:45:05;;;;;;;3.47;1.13;;;8.70;99.90;;;;;;5073094;28;20055;-90
2021/01/21 00:47:30;;;;;;;4.82;1.50;;;8.70;99.90;;;;;;5073271;28;20135;-87
2021/01/21 00:49:56;;;;;;;4.57;1.58;;;8.70;99.90;;;;;;5072476;28;20135;-87
2021/01/21 00:52:22;;;;;;;2.58;1.40;;;8.60;99.90;;;;;;5073066;28;20067;-87
2021/01/21 00:54:48;;;;;;;4.57;1.70;;;8.70;99.90;;;;;;5072868;28;20028;-86
2021/01/21 00:57:14;;;;;;;4.22;1.35;;;8.70;99.90;;;;;;5073884;28;20114;-88
2021/01/21 00:59:40;;;;;;;3.55;1.55;;;8.70;99.90;;;;;;5072465;28;20044;-89
2021/01/21 01:02:05;;;;;;;5.18;1.50;;;8.70;99.90;;;;;;5072928;28;20090;-86
2021/01/21 01:04:31;;;;;;;6.07;1.60;;;8.80;99.90;;;;;;5072634;28;20037;-85
2021/01/21 01:06:57;;;;;;;5.10;1.60;;;8.70;99.90;;;;;;5074291;28;20033;-90
2021/01/21 01:09:22;;;;;;;4.30;1.42;;;8.80;99.90;;;;;;5072173;28;20558;-89
2021/01/21 01:11:49;;;;;;;7.10;1.40;;;8.80;99.90;;;;;;5073289;28;20476;-87
2021/01/21 01:14:15;;;;;;;3.03;1.35;;;8.80;99.90;;;;;;5073036;28;20033;-90
2021/01/21 01:16:40;;;;;;;8.52;1.48;;;10.30;99.90;;;;;;5072677;28;20047;-90
2021/01/21 01:19:06;;;;;;;5.53;1.40;;;8.80;99.90;;;;;;5072216;28;20036;-90
2021/01/21 01:21:32;;;;;;;3.28;1.27;;;8.80;99.90;;;;;;5072800;28;20036;-89
2021/01/21 01:23:57;;;;;;;4.38;1.40;;;8.80;99.90;;;;;;5073199;28;20044;-88
2021/01/21 01:26:23;;;;;;;4.80;1.60;;;9.00;99.90;;;;;;5073167;28;20075;-89
2021/01/21 01:28:50;;;;;;;4.28;1.85;;;9.00;99.90;;;;;;5072513;28;20119;-84
2021/01/21 01:31:16;;;;;;;5.72;1.42;;;9.00;99.90;;;;;;5072940;28;20094;-90
2021/01/21 01:33:41;;;;;;;2.42;1.20;;;9.00;99.90;;;;;;5072701;28;20044;-87
2021/01/21 01:36:07;;;;;;;3.40;1.38;;;9.00;99.90;;;;;;5072436;28;20040;-87
2021/01/21 01:38:33;;;;;;;2.40;1.17;;;8.90;99.90;;;;;;5072592;28;20127;-90
2021/01/21 01:40:59;;;;;;;3.50;1.40;;;9.10;99.90;;;;;;5073303;28;20082;-86
2021/01/21 01:43:25;;;;;;;3.83;1.40;;;9.00;99.90;;;;;;5073435;28;20049;-87
2021/01/21 01:45:54;;;;;;;4.15;1.58;;;9.10;99.90;;;;;;5072586;28;20132;-86
2021/01/21 01:48:19;;;;;;;2.80;1.23;;;9.20;99.90;;;;;;5071988;28;20557;-86
2021/01/21 01:50:46;;;;;;;3.05;1.40;;;9.20;99.90;;;;;;5073278;28;20068;-87
2021/01/21 01:53:12;;;;;;;3.47;1.52;;;9.10;99.90;;;;;;5072723;28;20041;-88
2021/01/21 01:55:39;;;;;;;4.63;1.40;;;9.10;99.90;;;;;;5072935;28;20071;-87
2021/01/21 01:58:07;;;;;;;4.65;1.60;;;9.10;99.90;;;;;;5073049;28;20039;-87
2021/01/21 02:00:33;;;;;;;3.42;1.30;;;9.00;99.90;;;;;;5072922;28;20428;-88
2021/01/21 02:02:59;;;;;;;6.28;1.55;;;9.10;99.90;;;;;;5073014;28;20045;-90
2021/01/21 02:05:26;;;;;;;4.30;1.70;;;9.10;99.90;;;;;;5072951;28;20036;-89
2021/01/21 02:07:51;;;;;;;4.00;1.30;;;9.10;99.90;;;;;;5073393;28;20050;-87
2021/01/21 02:10:21;;;;;;;3.20;1.08;;;9.00;99.90;;;;;;5073023;28;20131;-88
2021/01/21 02:13:01;;;;;;;3.83;1.40;;;9.10;99.90;;;;;;5076665;28;20046;-88
2021/01/21 02:15:39;;;;;;;4.80;1.30;;;9.10;99.90;;;;;;5076724;28;20395;-88
2021/01/21 02:18:11;;;;;;;6.07;1.40;;;9.10;99.90;;;;;;5076060;28;20051;-86
2021/01/21 02:21:28;;;;;;;2.35;1.10;;;9.10;99.90;;;;;;5076223;28;20087;-87
2021/01/21 02:24:12;;;;;;;3.03;1.17;;;9.20;99.90;;;;;;4999254;28;20058;-87
2021/01/21 02:26:44;;;;;;;5.30;1.38;;;9.10;99.90;;;;;;4999279;28;20145;-88
2021/01/21 02:29:12;;;;;;;3.97;1.52;;;9.10;99.90;;;;;;5053464;28;20045;-88
2021/01/21 02:32:06;;;;;;;3.85;1.50;;;9.20;99.90;;;;;;5076352;28;20574;-88
2021/01/21 02:34:38;;;;;;;4.68;1.55;;;9.10;99.90;;;;;;5076812;28;20052;-88
2021/01/21 02:37:08;;;;;;;4.82;1.30;;;9.20;99.90;;;;;;5076352;28;20052;-89
2021/01/21 02:39:36;;;;;;;5.45;1.55;;;9.10;99.90;;;;;;5074948;28;20039;-89
2021/01/21 02:42:03;;;;;;;3.90;1.30;;;9.20;99.90;;;;;;5076142;28;20051;-89
2021/01/21 02:44:29;;;;;;;3.67;1.33;;;10.00;99.90;;;;;;5076497;28;20048;-88
2021/01/21 02:46:56;;;;;;;3.20;1.27;;;9.20;99.90;;;;;;5077668;28;20044;-89
2021/01/21 02:49:22;;;;;;;2.88;1.23;;;9.10;99.90;;;;;;5075309;28;20040;-88
2021/01/21 02:52:01;;;;;;;2.53;1.20;;;9.10;99.90;;;;;;5075836;28;20472;-88
2021/01/21 02:54:38;;;;;;;6.95;1.40;;;9.10;99.90;;;;;;5076351;28;20037;-89
2021/01/21 02:57:07;;;;;;;4.22;1.02;;;10.70;99.90;;;;;;5077777;28;20086;-88
2021/01/21 02:59:39;;;;;;;3.05;1.08;;;9.20;99.90;;;;;;5075027;28;20054;-88
2021/01/21 03:02:06;;;;;;;3.63;1.30;;;11.20;99.90;;;;;;5076559;28;20421;-87
2021/01/21 03:04:33;;;;;;;3.83;1.25;;;9.30;99.90;;;;;;5075878;28;20491;-87
2021/01/21 03:07:00;;;;;;;3.58;1.42;;;9.20;99.90;;;;;;5075530;28;20048;-88
2021/01/21 03:09:26;;;;;;;6.32;1.02;;;9.20;99.90;;;;;;5074519;28;20064;-88
2021/01/21 03:11:52;;;;;;;3.92;1.35;;;9.30;99.90;;;;;;5075590;28;20047;-89
2021/01/21 03:14:17;;;;;;;5.50;1.17;;;10.40;99.90;;;;;;5074463;28;20048;-88
2021/01/21 03:16:43;;;;;;;3.47;1.27;;;9.30;99.90;;;;;;5076184;28;20074;-89
2021/01/21 03:19:08;;;;;;;3.38;1.20;;;9.40;99.90;;;;;;5074437;28;20520;-88
2021/01/21 03:21:43;;;;;;;4.47;1.38;;;9.40;99.90;;;;;;5075017;28;20041;-87
2021/01/21 03:24:10;;;;;;;3.97;1.25;;;9.30;99.90;;;;;;5074801;28;20094;-87
2021/01/21 03:26:35;;;;;;;3.22;1.35;;;9.30;99.90;;;;;;5075888;28;20401;-88
2021/01/21 03:29:01;;;;;;;2.65;1.10;;;9.40;99.90;;;;;;5075493;28;20046;-87
2021/01/21 03:31:27;;;;;;;2.72;1.35;;;10.30;99.90;;;;;;5074330;28;20098;-87
2021/01/21 03:34:05;;;;;;;2.97;1.10;;;9.40;99.90;;;;;;5073679;28;20048;-89
2021/01/21 03:36:31;;;;;;;2.78;1.02;;;9.50;99.90;;;;;;5074920;28;20440;-89
2021/01/21 03:39:00;;;;;;;2.67;1.05;;;9.40;99.90;;;;;;5073378;28;20109;-89
2021/01/21 03:41:26;;;;;;;3.13;1.23;;;9.40;99.90;;;;;;5074767;28;20072;-87
2021/01/21 03:43:52;;;;;;;5.13;1.38;;;9.50;99.90;;;;;;5074707;28;20470;-90
2021/01/21 03:46:18;;;;;;;3.42;1.20;;;9.50;99.90;;;;;;5074370;28;20070;-91
2021/01/21 03:48:43;;;;;;;2.25;1.00;;;9.50;99.90;;;;;;5074260;28;20040;-90
2021/01/21 03:51:09;;;;;;;2.72;1.20;;;9.40;99.90;;;;;;5074485;28;20041;-87
2021/01/21 03:53:34;;;;;;;6.20;1.35;;;9.40;99.90;;;;;;5074504;28;20093;-89
2021/01/21 03:56:00;;;;;;;2.40;1.02;;;9.70;99.90;;;;;;5074539;28;20392;-88
2021/01/21 03:58:26;;;;;;;4.10;1.63;;;9.40;99.90;;;;;;5074739;28;20495;-88
2021/01/21 04:00:52;;;;;;;5.40;1.27;;;9.40;99.90;;;;;;5075489;28;20063;-88
2021/01/21 04:03:18;;;;;;;2.95;1.25;;;9.50;99.90;;;;;;5073793;28;20036;-88
2021/01/21 04:05:43;;;;;;;4.32;1.40;;;9.50;99.90;;;;;;5074123;28;20499;-90
2021/01/21 04:08:09;;;;;;;3.10;1.10;;;9.50;99.90;;;;;;5073413;28;20045;-87
2021/01/21 04:10:35;;;;;;;2.80;1.40;;;9.40;99.90;;;;;;5075445;28;20063;-87
2021/01/21 04:13:00;;;;;;;5.53;1.40;;;9.50;99.90;;;;;;5074693;28;20040;-88
2021/01/21 04:15:27;;;;;;;3.95;1.27;;;10.80;99.90;;;;;;5073790;28;20105;-89
2021/01/21 04:17:52;;;;;;;3.00;1.25;;;9.40;99.90;;;;;;5074077;28;20454;-87
2021/01/21 04:20:18;;;;;;;3.35;1.10;;;10.90;99.90;;;;;;5073579;28;20044;-88
2021/01/21 04:22:44;;;;;;;4.03;1.20;;;9.50;99.90;;;;;;5074669;28;20052;-87
2021/01/21 04:25:10;;;;;;;3.33;1.23;;;9.40;99.90;;;;;;5075684;28;20479;-88
2021/01/21 04:27:36;;;;;;;3.88;1.10;;;9.50;99.90;;;;;;5074310;28;20045;-90
2021/01/21 04:30:02;;;;;;;4.90;1.40;;;9.40;99.90;;;;;;5074376;28;20119;-87
2021/01/21 04:32:29;;;;;;;4.97;1.40;;;9.40;99.90;;;;;;5073764;28;20449;-86
2021/01/21 04:34:54;;;;;;;9.65;1.30;;;9.40;99.90;;;;;;5073283;28;20517;-89
2021/01/21 04:37:20;;;;;;;4.70;1.20;;;9.40;99.90;;;;;;5074028;28;20036;-89
2021/01/21 04:39:45;;;;;;;4.07;1.40;;;9.40;99.90;;;;;;5073077;28;20042;-89
2021/01/21 04:42:14;;;;;;;2.50;0.95;;;9.50;99.90;;;;;;5073866;28;20042;-87
2021/01/21 04:44:40;;;;;;;3.58;0.98;;;9.40;99.90;;;;;;5073154;28;20068;-90
2021/01/21 04:47:08;;;;;;;1.90;0.90;;;9.50;99.90;;;;;;5073600;28;20044;-88
2021/01/21 04:49:40;;;;;;;3.58;1.30;;;9.50;99.90;;;;;;5073322;28;20067;-87
2021/01/21 04:52:28;;;;;;;4.30;1.25;;;9.50;99.90;;;;;;5073478;28;20052;-88
2021/01/21 04:54:59;;;;;;;3.40;1.40;;;9.50;99.90;;;;;;5073214;28;20045;-90
2021/01/21 04:57:31;;;;;;;3.13;1.20;;;9.60;99.90;;;;;;5073263;28;20107;-88
2021/01/21 04:59:59;;;;;;;3.03;1.10;;;9.50;99.90;;;;;;5072863;28;20044;-86
2021/01/21 05:02:26;;;;;;;4.72;1.33;;;9.50;99.90;;;;;;5075254;28;20052;-88
2021/01/21 05:04:54;;;;;;;2.15;0.90;;;9.60;99.90;;;;;;5073126;28;20040;-89
2021/01/21 05:07:20;;;;;;;2.75;1.08;;;11.20;99.90;;;;;;5073361;28;20083;-89
2021/01/21 05:09:46;;;;;;;3.03;0.90;;;9.50;99.90;;;;;;5072977;28;20481;-89
2021/01/21 05:12:13;;;;;;;2.90;1.10;;;9.50;99.90;;;;;;5073669;28;20403;-88
2021/01/21 05:14:39;;;;;;;3.95;1.30;;;9.50;99.90;;;;;;5073381;28;20028;-88
2021/01/21 05:17:05;;;;;;;2.42;1.08;;;9.50;99.90;;;;;;5073796;28;20060;-88
2021/01/21 05:19:32;;;;;;;3.47;1.05;;;9.50;99.90;;;;;;5073093;28;20098;-87
2021/01/21 05:22:00;;;;;;;3.13;1.08;;;11.40;99.90;;;;;;5073383;28;20047;-87
2021/01/21 05:24:26;;;;;;;3.08;1.13;;;9.60;99.90;;;;;;5073672;28;20072;-89
2021/01/21 05:26:53;;;;;;;3.15;0.93;;;9.60;99.90;;;;;;5073273;28;20063;-88
2021/01/21 05:29:20;;;;;;;1.65;0.95;;;10.40;99.90;;;;;;5072576;28;20047;-88
2021/01/21 05:31:46;;;;;;;4.22;1.20;;;9.70;99.90;;;;;;5073216;28;20036;-89
2021/01/21 05:34:16;;;;;;;3.67;0.88;;;9.80;99.90;;;;;;5072909;28;20456;-87
2021/01/21 05:36:43;;;;;;;1.23;0.60;;;9.80;99.90;;;;;;5073259;28;20480;-89
2021/01/21 05:39:10;;;;;;;3.17;1.15;;;11.00;99.90;;;;;;5072685;28;20527;-87
2021/01/21 05:41:37;;;;;;;2.67;1.00;;;9.90;99.90;;;;;;5073233;28;20044;-90
2021/01/21 05:44:04;;;;;;;3.22;1.08;;;9.90;99.90;;;;;;5073056;28;20553;-87
2021/01/21 05:46:31;;;;;;;2.75;1.00;;;10.00;99.90;;;;;;5074343;28;20048;-89
2021/01/21 05:48:57;;;;;;;1.38;0.70;;;10.10;99.90;;;;;;5078518;28;20377;-89
2021/01/21 05:51:24;;;;;;;2.25;0.95;;;10.10;99.90;;;;;;5077440;28;20079;-89
2021/01/21 05:53:52;;;;;;;1.83;0.80;;;10.20;99.90;;;;;;5077241;28;20040;-89
2021/01/21 05:56:19;;;;;;;3.97;1.00;;;10.30;99.90;;;;;;5078133;28;20094;-87
2021/01/21 05:58:45;;;;;;;2.25;0.70;;;10.40;99.90;;;;;;5076132;28;20068;-88
2021/01/21 06:01:11;;;;;;;2.13;0.90;;;10.50;99.90;;;;;;5077653;28;20504;-89
2021/01/21 06:03:37;;;;;;;1.38;0.75;;;10.60;99.90;;;;;;5076815;28;20044;-88
2021/01/21 06:06:05;;;;;;;6.22;0.90;;;10.60;99.90;;;;;;5077026;28;20069;-89
2021/01/21 06:08:31;;;;;;;2.60;0.85;;;10.70;99.90;;;;;;5076760;28;20047;-88
2021/01/21 06:10:57;;;;;;;2.85;0.80;;;10.80;99.90;;;;;;5076702;28;20395;-86
2021/01/21 06:13:24;;;;;;;4.20;0.90;;;10.80;99.90;;;;;;5076804;28;20041;-86
2021/01/21 06:15:50;;;;;;;2.72;0.70;;;10.90;99.90;;;;;;5077230;28;20415;-90
2021/01/21 06:18:16;;;;;;;2.33;0.85;;;10.90;99.90;;;;;;5076974;28;20045;-88
2021/01/21 06:20:42;;;;;;;3.28;0.85;;;10.90;99.90;;;;;;5076680;28;20047;-87
2021/01/21 06:23:14;;;;;;;1.83;0.82;;;10.90;99.90;;;;;;5076709;28;20036;-88
2021/01/21 06:25:41;;;;;;;2.03;0.70;;;10.90;99.90;;;;;;5077194;28;20478;-87
2021/01/21 06:28:09;;;;;;;3.08;0.80;;;10.80;99.90;;;;;;5077340;28;20040;-88
2021/01/21 06:30:37;;;;;;;3.30;0.88;;;10.90;99.90;;;;;;5057933;28;20080;-88
2021/01/21 06:33:06;;;;;;;1.38;0.70;;;11.00;99.90;;;;;;5055491;28;20041;-89
2021/01/21 06:35:33;;;;;;;2.70;0.80;;;11.00;99.90;;;;;;5058261;28;20462;-89
2021/01/21 06:38:05;;;;;;;2.90;0.85;;;11.00;99.90;;;;;;5066800;28;20049;-87
2021/01/21 06:40:33;;;;;;;2.58;0.80;;;11.00;99.90;;;;;;5057272;28;20048;-85
2021/01/21 06:43:03;;;;;;;2.75;0.75;;;11.00;99.90;;;;;;5055749;28;20101;-87
2021/01/21 06:45:31;;;;;;;0.95;0.55;;;11.00;99.90;;;;;;5064293;28;20416;-88
2021/01/21 06:48:13;;;;;;;2.38;0.63;;;11.10;99.90;;;;;;5075847;28;20094;-89
2021/01/21 06:50:40;;;;;;;2.65;0.80;;;12.40;99.90;;;;;;5076201;28;20492;-88
2021/01/21 06:53:08;;;;;;;2.13;0.82;;;11.10;99.90;;;;;;5076108;28;20051;-89
2021/01/21 06:55:36;;;;;;;2.92;0.80;;;12.40;99.90;;;;;;5076179;28;20043;-88
2021/01/21 06:58:02;;;;;;;2.25;0.80;;;11.00;99.90;;;;;;5075561;28;20044;-84
2021/01/21 07:00:39;;;;;;;2.33;0.85;;;11.00;99.90;;;;;;5076353;28;20423;-89
2021/01/21 07:03:05;;;;;;;2.83;0.80;;;11.00;99.90;;;;;;5075625;28;20503;-87
2021/01/21 07:05:32;;;;;;;5.05;1.00;;;10.90;99.90;;;;;;5075825;28;20526;-88
2021/01/21 07:08:04;;;;;;;2.63;0.73;;;10.60;99.90;;;;;;5076186;28;20083;-89
2021/01/21 07:10:33;;;;;;;2.67;0.52;;;9.80;99.90;;;;;;5076744;28;20047;-88
2021/01/21 07:13:03;;;;;;;4.07;0.60;;;9.30;99.90;;;;;;5076817;28;20033;-87
2021/01/21 07:15:31;;;;;;;1.65;0.47;;;9.70;99.90;;;;;;5075872;28;20279;-89
2021/01/21 07:18:02;;;;;;;0.98;0.40;;;8.60;99.90;;;;;;5075416;28;20207;-88
2021/01/21 07:20:29;;;;;;;;;;;8.90;99.90;;;;;;5077049;28;20070;-87
2021/01/21 07:23:02;;;;;;;0.70;0.40;;;8.10;99.90;;;;;;5077491;28;19920;-87
2021/01/21 07:25:31;;;;;;;2.33;0.75;;;7.90;99.90;;;;;;5075633;28;20040;-87
2021/01/21 07:27:57;;;;;;;3.67;0.68;;;7.90;99.90;;;;;;5076125;28;20044;-88
2021/01/21 07:30:25;;;;;;;3.88;0.43;;;7.80;99.90;;;;;;5074842;28;20036;-88
2021/01/21 07:33:25;;;;;;;2.42;0.60;;;7.80;99.90;;;;;;5075697;28;20043;-89
2021/01/21 07:35:52;;;;;;;3.05;0.57;;;7.70;99.90;;;;;;5075993;28;20032;-86
2021/01/21 07:38:47;;;;;;;1.73;0.47;;;7.60;99.90;;;;;;5075549;28;20051;-88
2021/01/21 07:41:43;;;;;;;1.55;0.38;;;7.50;99.90;;;;;;5075570;28;20040;-89
2021/01/21 07:44:09;;;;;;;0.95;0.50;;;7.40;99.90;;;;;;5064038;28;20083;-88
2021/01/21 07:46:35;;;;;;;0.60;0.30;;;7.30;99.90;;;;;;5076450;28;20075;-88
2021/01/21 07:49:23;;;;;;;1.75;0.60;;;7.30;99.90;;;;;;5074630;28;20536;-86
2021/01/21 07:52:02;;;;;;;0.40;0.20;;;7.30;99.90;;;;;;5076297;28;20047;-89
2021/01/21 07:54:30;;;;;;;0.57;0.32;;;7.20;99.90;;;;;;5074807;28;20040;-87
2021/01/21 07:56:56;;;;;;;3.70;0.50;;;7.10;99.90;;;;;;5075692;28;20041;-87
2021/01/21 07:59:22;;;;;;;3.55;0.60;;;7.10;99.90;;;;;;5075231;28;20037;-90
2021/01/21 08:01:57;;;;;;;2.80;0.52;;;7.20;99.90;;;;;;5075786;28;20492;-89
2021/01/21 08:04:23;;;;;;;1.20;0.47;;;7.10;99.90;;;;;;5075015;28;20496;-88
2021/01/21 08:06:56;;;;;;;2.78;0.40;;;7.10;99.90;;;;;;5076369;28;20074;-90
2021/01/21 08:09:22;;;;;;;1.30;0.40;;;7.10;99.90;;;;;;5074847;28;20089;-89
2021/01/21 08:11:50;;;;;;;2.95;0.40;;;7.00;99.90;;;;;;5074979;28;20036;-87
2021/01/21 08:14:17;;;;;;;0.55;0.50;;;7.00;99.90;;;;;;5074340;28;20454;-90
2021/01/21 08:16:43;;;;;;;1.08;0.40;;;7.00;99.90;;;;;;5074817;28;20123;-87
2021/01/21 08:19:08;;;;;;;2.25;0.77;;;6.90;99.90;;;;;;5073855;28;20071;-87
2021/01/21 08:21:34;;;;;;;1.38;0.50;;;6.90;99.90;;;;;;5074161;28;20048;-87
2021/01/21 08:24:01;;;;;;;2.33;0.60;;;6.90;99.90;;;;;;5075566;28;20453;-89
2021/01/21 08:26:29;;;;;;;0.88;0.43;;;6.90;99.90;;;;;;5073878;28;20407;-89
2021/01/21 08:28:56;;;;;;;2.63;0.63;;;6.90;99.90;;;;;;5073757;28;20076;-87
2021/01/21 08:31:33;;;;;;;2.40;0.55;;;7.00;99.90;;;;;;5073763;28;20045;-88
2021/01/21 08:34:07;;;;;;;3.03;0.40;;;7.00;99.90;;;;;;5075559;28;20466;-89
2021/01/21 08:36:33;;;;;;;1.90;0.70;;;6.90;99.90;;;;;;5081118;28;20040;-91
2021/01/21 08:38:59;;;;;;;2.70;0.55;;;6.90;99.90;;;;;;5080160;28;20041;-88
2021/01/21 08:41:32;;;;;;;3.33;0.57;;;6.90;99.90;;;;;;5074229;28;20412;-89
2021/01/21 08:44:00;;;;;;;0.93;0.43;;;6.90;99.90;;;;;;5074944;28;20044;-89
2021/01/21 08:46:26;;;;;;;0.75;0.40;;;6.90;99.90;;;;;;5074407;28;20047;-86
2021/01/21 08:48:52;;;;;;;1.50;0.60;;;6.90;99.90;;;;;;5073069;28;20115;-87
2021/01/21 08:51:24;;;;;;;1.42;0.50;;;6.90;99.90;;;;;;5073696;28;20506;-90
2021/01/21 08:53:49;;;;;;;1.10;0.40;;;6.80;99.90;;;;;;5073105;28;20503;-88
2021/01/21 08:56:15;;;;;;;1.38;0.47;;;6.90;99.90;;;;;;5073551;28;20028;-89
2021/01/21 08:58:41;;;;;;;0.90;0.30;;;6.90;99.90;;;;;;5073081;28;20044;-89
2021/01/21 09:01:12;;;;;;;1.27;0.43;;;6.80;99.90;;;;;;5073722;28;20032;-91
2021/01/21 09:03:44;;;;;;;3.88;0.50;;;6.90;99.90;;;;;;5074063;28;20044;-89
2021/01/21 09:06:11;;;;;;;2.00;0.57;;;6.80;99.90;;;;;;5073887;28;20033;-88
2021/01/21 09:08:47;;;;;;;1.13;0.47;;;6.90;99.90;;;;;;5073841;28;20049;-90
2021/01/21 09:11:27;;;;;;;3.38;0.50;;;6.80;99.90;;;;;;5073905;28;20032;-90
2021/01/21 09:13:52;;;;;;;2.60;0.60;;;6.80;99.90;;;;;;5074417;28;20040;-88
2021/01/21 09:16:19;;;;;;;1.73;0.50;;;6.80;99.90;;;;;;5074719;28;20040;-88
2021/01/21 09:18:45;;;;;;;0.90;0.47;;;6.80;99.90;;;;;;5074325;28;20044;-89
2021/01/21 09:21:12;;;;;;;3.33;0.60;;;6.80;99.90;;;;;;5076696;28;20425;-89
2021/01/21 09:23:39;;;;;;;2.65;0.52;;;6.80;99.90;;;;;;5078869;28;20036;-88
2021/01/21 09:26:12;;;;;;;2.00;0.60;;;6.80;99.90;;;;;;5077673;28;20033;-88
2021/01/21 09:28:52;;;;;;;2.85;0.70;;;6.80;99.90;;;;;;5077717;28;20048;-88
2021/01/21 09:31:21;;;;;;;1.90;0.70;;;8.50;99.90;;;;;;5078118;28;20132;-88
2021/01/21 09:33:48;;;;;;;3.28;0.70;;;8.00;99.90;;;;;;5077722;28;20049;-89
2021/01/21 09:36:14;;;;;;;5.63;0.90;;;6.80;99.90;;;;;;5078627;28;20032;-89
2021/01/21 09:38:39;;;;;;;5.07;0.85;;;6.80;99.90;;;;;;5079772;28;20506;-89
2021/01/21 09:41:05;;;;;;;5.70;0.90;;;6.70;99.90;;;;;;5079640;28;20561;-89
2021/01/21 09:43:31;;;;;;;2.70;0.70;;;6.70;99.90;;;;;;5078932;28;20408;-88
2021/01/21 09:45:56;;;;;;;1.85;0.68;;;6.70;99.90;;;;;;5078012;28;20395;-88
2021/01/21 09:48:24;;;;;;;3.92;1.10;;;6.70;99.90;;;;;;5077799;28;20073;-88
2021/01/21 09:50:52;;;;;;;6.78;0.90;;;8.00;99.90;;;;;;5076832;28;20059;-88
2021/01/21 09:53:18;;;;;;;1.95;0.80;;;6.70;99.90;;;;;;5077972;28;20037;-89
2021/01/21 09:55:44;;;;;;;3.55;1.33;;;6.70;99.90;;;;;;5077841;28;20047;-88
2021/01/21 09:58:09;;;;;;;4.13;1.20;;;6.70;99.90;;;;;;5077220;28;20040;-89
2021/01/21 10:00:35;;;;;;;2.25;1.00;;;6.70;99.90;;;;;;5077146;28;20169;-88
2021/01/21 10:03:01;;;;;;;2.95;0.95;;;6.70;99.90;;;;;;5077450;28;20037;-88
2021/01/21 10:05:27;;;;;;;6.80;1.13;;;6.80;99.90;;;;;;5076985;28;20487;-87
2021/01/21 10:07:53;;;;;;;5.20;1.05;;;6.80;99.90;;;;;;5076527;28;20090;-89
2021/01/21 10:10:18;;;;;;;5.53;1.33;;;6.90;99.90;;;;;;5076271;28;20040;-89
2021/01/21 10:12:44;;;;;;;6.88;1.02;;;6.90;99.90;;;;;;5078078;28;20041;-89
2021/01/21 10:15:10;;;;;;;5.22;1.10;;;7.00;99.90;;;;;;5078401;28;20037;-90
2021/01/21 10:17:36;;;;;;;8.15;1.05;;;7.10;99.90;;;;;;5077461;28;20056;-90
2021/01/21 10:20:03;;;;;;;3.20;0.90;;;7.10;99.90;;;;;;5078419;28;20048;-90
2021/01/21 10:22:32;;;;;;;3.25;1.05;;;7.00;99.90;;;;;;5077140;28;20392;-88
2021/01/21 10:24:57;;;;;;;2.08;0.77;;;7.10;99.90;;;;;;5093504;28;20041;-86
2021/01/21 10:27:27;;;;;;;5.63;1.25;;;8.20;99.90;;;;;;5081675;28;20076;-89
2021/01/21 10:29:52;;;;;;;7.38;1.40;;;7.20;99.90;;;;;;5076937;28;20041;-87
2021/01/21 10:32:18;;;;;;;2.28;0.80;;;7.30;99.90;;;;;;5076780;28;20111;-87
2021/01/21 10:34:43;;;;;;;7.72;1.17;;;7.20;99.90;;;;;;5077145;28;20510;-91
2021/01/21 10:37:09;;;;;;;3.70;0.98;;;7.20;99.90;;;;;;5077260;28;20041;-89
2021/01/21 10:39:37;;;;;;;5.25;1.05;;;7.20;99.90;;;;;;5076557;28;20049;-89
2021/01/21 10:42:03;;;;;;;8.75;1.40;;;7.30;99.90;;;;;;5077108;28;20040;-89
2021/01/21 10:44:29;;;;;;;5.43;1.40;;;7.30;99.90;;;;;;5077091;28;20072;-88
2021/01/21 10:46:54;;;;;;;5.70;1.20;;;7.20;99.90;;;;;;5076575;28;20070;-88
2021/01/21 10:49:20;;;;;;;8.27;1.40;;;8.50;99.90;;;;;;5075522;28;20537;-88
2021/01/21 10:51:47;;;;;;;5.88;1.17;;;7.30;99.90;;;;;;5077044;28;20032;-89
2021/01/21 10:54:12;;;;;;;4.22;1.27;;;7.30;99.90;;;;;;5076916;28;20131;-88
2021/01/21 10:56:39;;;;;;;4.97;1.15;;;7.30;99.90;;;;;;5077395;28;20064;-87
2021/01/21 10:59:07;;;;;;;3.47;0.98;;;7.30;99.90;;;;;;5077355;28;20053;-89
2021/01/21 11:01:35;;;;;;;5.70;1.27;;;7.40;99.90;;;;;;5078074;28;20071;-90
2021/01/21 11:04:00;;;;;;;5.15;1.33;;;8.80;99.90;;;;;;5076682;28;20426;-88
2021/01/21 11:06:26;;;;;;;4.82;1.27;;;7.40;99.90;;;;;;5076520;28;20045;-89
2021/01/21 11:08:52;;;;;;;7.45;1.30;;;8.30;99.90;;;;;;5075902;28;20094;-89
2021/01/21 11:11:17;;;;;;;5.78;1.10;;;7.50;99.90;;;;;;5077242;28;20126;-88
2021/01/21 11:13:44;;;;;;;5.75;1.13;;;7.50;99.90;;;;;;5059921;28;20466;-88
2021/01/21 11:16:10;;;;;;;7.20;1.60;;;7.40;99.90;;;;;;5070439;28;20036;-88
2021/01/21 11:18:36;;;;;;;9.63;1.10;;;7.50;99.90;;;;;;5075325;28;20070;-90
2021/01/21 11:21:02;;;;;;;6.35;1.33;;;7.50;99.90;;;;;;5076073;28;20074;-89
2021/01/21 11:23:27;;;;;;;6.40;1.25;;;7.50;99.90;;;;;;5076894;28;20399;-87
2021/01/21 11:25:53;;;;;;;6.63;1.30;;;7.50;99.90;;;;;;5073667;28;20068;-88
2021/01/21 11:28:20;;;;;;;3.45;1.23;;;8.30;99.90;;;;;;5074110;28;20048;-88
2021/01/21 11:30:47;;;;;;;6.65;1.05;;;7.60;99.90;;;;;;5075099;28;20041;-90
2021/01/21 11:33:13;;;;;;;4.47;1.23;;;7.60;99.90;;;;;;5075005;28;20064;-90
2021/01/21 11:35:40;;;;;;;8.35;1.48;;;7.60;99.90;;;;;;5074884;28;20522;-88
2021/01/21 11:38:05;;;;;;;3.35;0.82;;;7.70;99.90;;;;;;5074473;28;20123;-86
2021/01/21 11:40:31;;;;;;;8.63;1.20;;;7.70;99.90;;;;;;5074481;28;20080;-89
2021/01/21 11:42:58;;;;;;;8.00;1.30;;;7.70;99.90;;;;;;5073496;28;20107;-90
2021/01/21 11:45:24;;;;;;;5.60;1.17;;;7.70;99.90;;;;;;5073330;28;20139;-89
2021/01/21 11:47:50;;;;;;;7.32;1.30;;;7.80;99.90;;;;;;5074275;28;20068;-89
2021/01/21 11:50:17;;;;;;;5.28;1.52;;;7.80;99.90;;;;;;5075555;28;20048;-89
2021/01/21 11:52:43;;;;;;;6.50;1.20;;;9.30;99.90;;;;;;5074106;28;20044;-90
2021/01/21 11:55:10;;;;;;;5.47;1.42;;;7.80;99.90;;;;;;5075632;28;20042;-89
2021/01/21 11:57:36;;;;;;;4.25;1.17;;;7.80;99.90;;;;;;5075457;28;20070;-90
2021/01/21 12:00:04;;;;;;;5.82;1.20;;;7.80;99.90;;;;;;5074165;28;20048;-89
2021/01/21 12:02:31;;;;;;;8.73;1.20;;;7.80;99.90;;;;;;5074048;28;20036;-91
2021/01/21 12:04:57;;;;;;;3.13;1.15;;;8.50;99.90;;;;;;5075083;28;20563;-89
2021/01/21 12:07:23;;;;;;;5.05;1.23;;;7.70;99.90;;;;;;5074217;28;20044;-91
2021/01/21 12:09:49;;;;;;;4.45;1.02;;;7.70;99.90;;;;;;5075309;28;20044;-90
2021/01/21 12:12:14;;;;;;;7.82;1.25;;;7.80;99.90;;;;;;5076521;28;20036;-91
2021/01/21 12:14:40;;;;;;;7.00;1.33;;;7.80;99.90;;;;;;5065881;28;20037;-88
2021/01/21 12:17:06;;;;;;;5.35;1.10;;;7.90;99.90;;;;;;5074400;28;20744;-89
2021/01/21 12:19:32;;;;;;;7.75;1.20;;;7.90;99.90;;;;;;5074000;28;20043;-87
2021/01/21 12:21:59;;;;;;;4.07;1.00;;;7.90;99.90;;;;;;5073891;28;20411;-86
2021/01/21 12:24:24;;;;;;;7.20;1.00;;;8.00;99.90;;;;;;5073060;28;20419;-88
2021/01/21 12:26:50;;;;;;;4.30;1.10;;;8.00;99.90;;;;;;5073675;28;20139;-89
2021/01/21 12:29:16;;;;;;;3.13;1.00;;;8.00;99.90;;;;;;5074214;28;20135;-88
2021/01/21 12:31:50;;;;;;;4.75;1.30;;;8.00;99.90;;;;;;5074454;28;20136;-89
2021/01/21 12:34:16;;;;;;;6.32;1.00;;;8.00;99.90;;;;;;5074454;28;20076;-89
2021/01/21 12:36:41;;;;;;;4.57;1.27;;;7.90;99.90;;;;;;5073415;28;20079;-89
2021/01/21 12:39:08;;;;;;;5.63;1.17;;;8.00;99.90;;;;;;5073692;28;20052;-89
2021/01/21 12:41:34;;;;;;;1.58;0.88;;;9.20;99.90;;;;;;5073952;28;20583;-89
2021/01/21 12:44:00;;;;;;;7.93;1.23;;;8.00;99.90;;;;;;5073388;28;20080;-89
2021/01/21 12:46:28;;;;;;;3.70;1.00;;;8.00;99.90;;;;;;5074509;28;20115;-90
2021/01/21 12:48:54;;;;;;;3.63;1.15;;;8.00;99.90;;;;;;5073884;28;20036;-89
2021/01/21 12:51:24;;;;;;;6.88;1.02;;;9.20;99.90;;;;;;5073237;28;20135;-88
2021/01/21 12:53:50;;;;;;;3.25;0.98;;;8.00;99.90;;;;;;5073890;28;20040;-90
2021/01/21 12:56:17;;;;;;;5.15;1.30;;;8.10;99.90;;;;;;5072834;28;20044;-88
2021/01/21 12:58:42;;;;;;;3.58;1.02;;;9.60;99.90;;;;;;5073190;28;20455;-88